Flugplatz Gunzenhausen-Reutberg

Für EDMH sind keine METAR/TAF Berichte vorhanden.
Es werden die Flugwettermeldungen vom Flugplatz Ansbach Army Heliport in 24 km Entfernung angezeigt.

Bericht für ETEB

vom 28.02. um 03:10 UTC

Wind 14 kt aus 270° in Böen 20 kt

Sichtweite 8000 m

schwacher Regen

feuchter Dunst

aufgebrochene Bewölkung in 1400 ft

bedeckt in 1900 ft

Temperatur 0.0°C

Taupunkt 0.0°C

Luftfeuchtigkeit 100%

Luftdruck 1012 hPa

ETEB 280310Z AUTO 27014G20KT 8000 -RA BR BKN014 OVC019 00/00 A2988 RMK AO2 RAB10 PRESRR SLP157 $

Prognose für ETEB

vom 28.02. um 00:00 UTC

Zwischen 00:00 UTC und 00:00 UTC

Wind 10 kt aus 280° in Böen 15 kt

Sichtweite 5000 m

schwacher Schnee

aufgebrochene Bewölkung in 1200 ft


Zwischen 00:00 und 00:00 UTC übergehend zu

Wind 12 kt aus 290°

Sichtweite 10 km oder mehr

keine signifikanten Wettererscheinungen

aufgebrochene Bewölkung in 1500 ft


Zwischen 00:00 und 00:00 UTC übergehend zu

Wind 9 kt aus 270°

Sichtweite 10 km oder mehr

keine signifikanten Wettererscheinungen

aufgelockert bewölkt in 1500 ft

TAF AMD ETEB 2802/2904 28010G15KT 5000 -SN BKN012 620159 QNH2955INS BECMG 2805/2806 29012KT 9999 NSW BKN015 620159 QNH2990INS BECMG 2815/2816 27009KT 9999 SCT015 QNH2996INS TX02/2815Z TNM02/2803Z
Impressum